KAMN/AMN METAR and TAF weather

Enter ICAO airport designator
Station Type Date Time Source
KAMN METAR 2018/10/21 03:37 UTC NOAA

KAMN 210337Z AUTO 30009G15KT 10SM OVC033 02/M03 A3016 RMK AO2 T00201028


Station Type Date Time Source
KAMN Decoded METAR 2018/10/21 03:37 UTC NOAA

Alma, Gratiot Community Airport, MI, United States (KAMN) 43-19-19N 084-41-16W
Oct 20, 2018 - 11:37 PM EDT / 2018.10.21 0337 UTC
Wind: from the WNW (300 degrees) at 10 MPH (9 KT) gusting to 17 MPH (15 KT):0
Visibility: 10 mile(s):0
Sky conditions: overcast
Temperature: 35.6 F (2.0 C)
Dew Point: 27.0 F (-2.8 C)
Relative Humidity: 70%
Pressure (altimeter): 30.16 in. Hg (1021 hPa)
ob: KAMN 210337Z AUTO 30009G15KT 10SM OVC033 02/M03 A3016 RMK AO2 T00201028
cycle: 3

Station Type Date Time Source
KAMN TAF UTC NOAA

Error!


Example: see airport list